Time;durP1;ratioP1;P1;durP2;ratioP2;P2;SDS_P1;SDS_P2;PMS_P1;PMS_P2;Temp;Humidity;BMP_temperature;BMP_pressure;BME280_temperature;BME280_humidity;BME280_pressure;Samples;Min_cycle;Max_cycle;Signal;HPM_P1;HPM_P2
2022/08/22 00:02:07;;;;;;;;;;;;;;;17.49;100.00;101638.84;2613579;36;19951;-53
2022/08/22 00:04:38;;;;;;;;;;;;;;;17.51;100.00;101642.22;2613721;36;19965;-55
2022/08/22 00:07:09;;;;;;;;;;;;;;;17.44;100.00;101641.16;2614109;36;19981;-56
2022/08/22 00:09:43;;;;;;;;;;;;;;;17.41;100.00;101638.78;2616631;31;19969;-54
2022/08/22 00:12:19;;;;;;;;;;;;;;;17.37;100.00;101637.38;2614771;36;19954;-54
2022/08/22 00:14:52;;;;;;;;;;;;;;;17.38;100.00;101639.09;2614844;36;19951;-52
2022/08/22 00:17:29;;;;;;;;;;;;;;;17.28;100.00;101641.09;2615159;36;19953;-54
2022/08/22 00:20:01;;;;;;;;;;;;;;;17.33;100.00;101639.59;2615406;36;19954;-54
2022/08/22 00:22:34;;;;;;;;;;;;;;;17.26;100.00;101645.84;2612652;31;20328;-55
2022/08/22 00:25:08;;;;;;;;;;;;;;;17.33;100.00;101644.19;2613274;36;19962;-50
2022/08/22 00:27:52;;;;;;;;;;;;;;;17.36;100.00;101652.03;2613663;36;19981;-55
2022/08/22 00:30:21;;;;;;;;;;;;;;;17.35;100.00;101644.88;2613822;36;19958;-55
2022/08/22 00:32:51;;;;;;;;;;;;;;;17.30;100.00;101641.81;2613949;36;20451;-54
2022/08/22 00:35:23;;;;;;;;;;;;;;;17.27;100.00;101644.81;2613958;36;20074;-52
2022/08/22 00:37:58;;;;;;;;;;;;;;;17.26;100.00;101648.56;2614906;36;19962;-52
2022/08/22 00:40:31;;;;;;;;;;;;;;;17.21;100.00;101642.75;2614096;31;19946;-55
2022/08/22 00:43:14;;;;;;;;;;;;;;;17.25;100.00;101646.84;2613238;36;20001;-53
2022/08/22 00:46:03;;;;;;;;;;;;;;;17.28;100.00;101649.25;2613398;36;19947;-53
2022/08/22 00:48:49;;;;;;;;;;;;;;;17.23;100.00;101646.19;2613223;36;19958;-54
2022/08/22 00:51:36;;;;;;;;;;;;;;;17.16;100.00;101646.78;2614188;36;19953;-54
2022/08/22 00:54:07;;;;;;;;;;;;;;;17.17;100.00;101659.38;2613977;36;19959;-54
2022/08/22 00:56:53;;;;;;;;;;;;;;;17.19;100.00;101650.22;2614354;36;19958;-58
2022/08/22 00:59:34;;;;;;;;;;;;;;;17.20;100.00;101651.94;2615333;36;20363;-51
2022/08/22 01:02:10;;;;;;;;;;;;;;;17.13;100.00;101654.44;2613675;36;19950;-53
2022/08/22 01:04:53;;;;;;;;;;;;;;;17.13;100.00;101663.44;2614936;36;20396;-52
2022/08/22 01:07:36;;;;;;;;;;;;;;;17.10;100.00;101652.03;2614350;36;19951;-54
2022/08/22 01:10:13;;;;;;;;;;;;;;;17.05;100.00;101655.25;2614746;31;20186;-55
2022/08/22 01:12:52;;;;;;;;;;;;;;;17.01;100.00;101664.72;2614668;36;20353;-54
2022/08/22 01:15:25;;;;;;;;;;;;;;;16.91;100.00;101655.81;2614811;31;19939;-54
2022/08/22 01:18:02;;;;;;;;;;;;;;;16.93;100.00;101661.94;2615059;36;20344;-54
2022/08/22 01:20:47;;;;;;;;;;;;;;;16.92;100.00;101661.09;2614195;31;20017;-52
2022/08/22 01:23:41;;;;;;;;;;;;;;;16.90;100.00;101654.09;2613451;36;20026;-53
2022/08/22 01:26:25;;;;;;;;;;;;;;;16.90;100.00;101651.38;2613384;36;19967;-55
2022/08/22 01:29:13;;;;;;;;;;;;;;;16.84;100.00;101652.81;2614074;36;19950;-55
2022/08/22 01:31:55;;;;;;;;;;;;;;;16.78;100.00;101662.50;2614111;31;19939;-57
2022/08/22 01:34:38;;;;;;;;;;;;;;;16.76;100.00;101664.50;2615136;31;19973;-54
2022/08/22 01:37:20;;;;;;;;;;;;;;;16.76;100.00;101660.94;2614689;36;19950;-52
2022/08/22 01:39:58;;;;;;;;;;;;;;;16.77;100.00;101666.22;2614704;36;19946;-55
2022/08/22 01:42:43;;;;;;;;;;;;;;;16.82;100.00;101665.72;2613810;31;19953;-54
2022/08/22 01:45:26;;;;;;;;;;;;;;;16.81;100.00;101659.44;2613777;36;19946;-52
2022/08/22 01:47:57;;;;;;;;;;;;;;;16.79;100.00;101657.91;2612794;31;19970;-53
2022/08/22 01:50:32;;;;;;;;;;;;;;;16.76;100.00;101650.91;2614052;36;20384;-55
2022/08/22 01:53:04;;;;;;;;;;;;;;;16.78;100.00;101657.06;2614040;36;19958;-54
2022/08/22 01:55:34;;;;;;;;;;;;;;;16.72;100.00;101657.66;2614942;36;19954;-57
2022/08/22 01:58:04;;;;;;;;;;;;;;;16.75;100.00;101664.66;2614698;36;20002;-52
2022/08/22 02:00:49;;;;;;;;;;;;;;;16.84;100.00;101662.84;2613550;31;19955;-52
2022/08/22 02:03:23;;;;;;;;;;;;;;;16.80;100.00;101656.91;2613777;36;19957;-51
2022/08/22 02:06:00;;;;;;;;;;;;;;;16.80;100.00;101659.63;2615299;31;19946;-51
2022/08/22 02:08:32;;;;;;;;;;;;;;;16.79;100.00;101656.03;2614329;36;19950;-55
2022/08/22 02:11:04;;;;;;;;;;;;;;;16.72;100.00;101654.94;2614904;36;19957;-54
2022/08/22 02:13:44;;;;;;;;;;;;;;;16.71;100.00;101658.69;2614236;36;19951;-52
2022/08/22 02:16:16;;;;;;;;;;;;;;;16.76;100.00;101655.50;2614549;36;19978;-55
2022/08/22 02:18:48;;;;;;;;;;;;;;;16.76;100.00;101659.06;2614367;36;20034;-53
2022/08/22 02:21:22;;;;;;;;;;;;;;;16.72;100.00;101657.66;2614760;36;19943;-51
2022/08/22 02:23:53;;;;;;;;;;;;;;;16.73;100.00;101659.38;2613807;36;19947;-51
2022/08/22 02:26:23;;;;;;;;;;;;;;;16.72;100.00;101654.94;2614472;36;19978;-56
2022/08/22 02:28:56;;;;;;;;;;;;;;;16.75;100.00;101649.19;2612829;36;19953;-54
2022/08/22 02:31:27;;;;;;;;;;;;;;;16.78;100.00;101653.47;2614247;31;20436;-50
2022/08/22 02:33:56;;;;;;;;;;;;;;;16.78;100.00;101654.34;2615163;36;20444;-54
2022/08/22 02:36:30;;;;;;;;;;;;;;;16.77;100.00;101647.19;2613143;36;19951;-53
2022/08/22 02:39:02;;;;;;;;;;;;;;;16.74;100.00;101650.22;2614641;36;20438;-56
2022/08/22 02:41:33;;;;;;;;;;;;;;;16.79;100.00;101645.16;2613920;36;19954;-55
2022/08/22 02:44:03;;;;;;;;;;;;;;;16.79;100.00;101644.31;2613902;36;20005;-51
2022/08/22 02:46:33;;;;;;;;;;;;;;;16.80;100.00;101646.88;2613676;31;20597;-57
2022/08/22 02:49:07;;;;;;;;;;;;;;;16.80;100.00;101646.88;2615480;36;19961;-54
2022/08/22 02:51:44;;;;;;;;;;;;;;;16.81;100.00;101643.13;2613017;36;19959;-53
2022/08/22 02:54:17;;;;;;;;;;;;;;;16.89;100.00;101649.69;2614761;31;20328;-51
2022/08/22 02:56:47;;;;;;;;;;;;;;;16.82;100.00;101642.09;2613897;31;20290;-56
2022/08/22 02:59:23;;;;;;;;;;;;;;;16.76;100.00;101648.19;2615467;31;20530;-57
2022/08/22 03:01:52;;;;;;;;;;;;;;;16.78;100.00;101646.19;2614492;36;19989;-52
2022/08/22 03:04:37;;;;;;;;;;;;;;;16.72;100.00;101638.63;2614874;36;20511;-56
2022/08/22 03:07:14;;;;;;;;;;;;;;;16.74;100.00;101641.19;2613744;36;20089;-53
2022/08/22 03:09:47;;;;;;;;;;;;;;;16.76;100.00;101637.31;2614902;36;19947;-49
2022/08/22 03:12:20;;;;;;;;;;;;;;;16.68;100.00;101631.81;2612730;36;19969;-50
2022/08/22 03:14:54;;;;;;;;;;;;;;;16.73;100.00;101637.63;2614866;36;20344;-53
2022/08/22 03:17:25;;;;;;;;;;;;;;;16.69;100.00;101630.78;2614962;36;20062;-50
2022/08/22 03:19:57;;;;;;;;;;;;;;;16.68;100.00;101626.38;2614343;36;19954;-51
2022/08/22 03:22:33;;;;;;;;;;;;;;;16.66;100.00;101628.41;2613818;36;19951;-55
2022/08/22 03:25:06;;;;;;;;;;;;;;;16.62;100.00;101621.56;2613480;36;20387;-57
2022/08/22 03:27:37;;;;;;;;;;;;;;;16.53;100.00;101622.50;2614061;36;19973;-55
2022/08/22 03:30:07;;;;;;;;;;;;;;;16.53;100.00;101622.50;2611721;31;19946;-56
2022/08/22 03:32:49;;;;;;;;;;;;;;;16.61;100.00;101625.31;2611257;36;19978;-53
2022/08/22 03:35:24;;;;;;;;;;;;;;;16.65;100.00;101621.25;2614449;31;19962;-55
2022/08/22 03:37:57;;;;;;;;;;;;;;;16.66;100.00;101619.41;2614881;36;19973;-54
2022/08/22 03:40:31;;;;;;;;;;;;;;;16.61;100.00;101619.88;2615031;36;22761;-54
2022/08/22 03:43:12;;;;;;;;;;;;;;;16.59;100.00;101609.16;2613015;36;20034;-56
2022/08/22 03:45:50;;;;;;;;;;;;;;;16.50;100.00;101622.81;2613159;36;19985;-55
2022/08/22 03:48:33;;;;;;;;;;;;;;;16.55;100.00;101613.19;2614173;31;19947;-54
2022/08/22 03:51:19;;;;;;;;;;;;;;;16.65;100.00;101615.81;2613812;36;19977;-52
2022/08/22 03:54:01;;;;;;;;;;;;;;;16.63;100.00;101612.41;2613679;36;19955;-58
2022/08/22 03:56:43;;;;;;;;;;;;;;;16.55;100.00;101610.47;2614153;36;19950;-53
2022/08/22 03:59:29;;;;;;;;;;;;;;;16.60;100.00;101613.56;2613403;36;20389;-54
2022/08/22 04:02:07;;;;;;;;;;;;;;;16.59;100.00;101619.16;2612251;36;20365;-56
2022/08/22 04:04:56;;;;;;;;;;;;;;;16.72;100.00;101616.88;2611776;36;19986;-51
2022/08/22 04:07:45;;;;;;;;;;;;;;;16.79;100.00;101619.84;2610410;36;20468;-56
2022/08/22 04:10:30;;;;;;;;;;;;;;;16.72;100.00;101616.88;2609908;36;20041;-54
2022/08/22 04:13:15;;;;;;;;;;;;;;;16.63;100.00;101624.13;2611611;36;19950;-56
2022/08/22 04:16:05;;;;;;;;;;;;;;;16.74;100.00;101624.88;2611272;36;19973;-53
2022/08/22 04:18:54;;;;;;;;;;;;;;;16.75;100.00;101622.00;2611446;36;19951;-53
2022/08/22 04:21:31;;;;;;;;;;;;;;;16.78;100.00;101619.00;2612560;36;19950;-52
2022/08/22 04:24:08;;;;;;;;;;;;;;;16.71;100.00;101623.34;2612476;31;20437;-52
2022/08/22 04:26:42;;;;;;;;;;;;;;;16.77;100.00;101625.44;2612283;36;19950;-53
2022/08/22 04:29:16;;;;;;;;;;;;;;;16.72;100.00;101627.75;2613613;36;19992;-55
2022/08/22 04:31:47;;;;;;;;;;;;;;;16.81;100.00;101626.81;2611859;36;19970;-55
2022/08/22 04:34:18;;;;;;;;;;;;;;;16.77;100.00;101635.47;2613600;36;19951;-54
2022/08/22 04:36:49;;;;;;;;;;;;;;;16.76;100.00;101628.31;2614164;36;19981;-55
2022/08/22 04:39:19;;;;;;;;;;;;;;;16.81;100.00;101626.81;2614957;36;20443;-53
2022/08/22 04:41:50;;;;;;;;;;;;;;;16.85;100.00;101631.94;2614184;36;19957;-55
2022/08/22 04:44:26;;;;;;;;;;;;;;;16.85;100.00;101631.94;2613434;36;19957;-51
2022/08/22 04:46:58;;;;;;;;;;;;;;;16.79;100.00;101631.56;2612270;36;19950;-55
2022/08/22 04:49:31;;;;;;;;;;;;;;;16.85;100.00;101635.50;2615504;36;20504;-49
2022/08/22 04:52:06;;;;;;;;;;;;;;;16.89;100.00;101636.09;2613265;36;19958;-53
2022/08/22 04:54:40;;;;;;;;;;;;;;;16.97;100.00;101636.13;2614875;36;19967;-53
2022/08/22 04:57:22;;;;;;;;;;;;;;;16.91;100.00;101637.63;2613985;31;19955;-52
2022/08/22 04:59:59;;;;;;;;;;;;;;;16.96;100.00;101632.56;2614098;31;19946;-54
2022/08/22 05:02:29;;;;;;;;;;;;;;;16.90;100.00;101635.06;2612343;31;20328;-54
2022/08/22 05:05:02;;;;;;;;;;;;;;;16.89;100.00;101636.09;2614103;36;19950;-52
2022/08/22 05:07:34;;;;;;;;;;;;;;;16.85;100.00;101640.09;2613651;36;19947;-58
2022/08/22 05:10:10;;;;;;;;;;;;;;;16.88;100.00;101635.22;2614224;36;20524;-56
2022/08/22 05:12:40;;;;;;;;;;;;;;;16.86;100.00;101644.50;2614739;36;20417;-56
2022/08/22 05:15:15;;;;;;;;;;;;;;;16.97;100.00;101642.44;2614428;31;20427;-53
2022/08/22 05:17:44;;;;;;;;;;;;;;;17.10;100.00;101652.88;2613317;31;19950;-56
2022/08/22 05:20:16;;;;;;;;;;;;;;;17.09;100.00;101644.88;2614709;31;19950;-53
2022/08/22 05:22:47;;;;;;;;;;;;;;;17.04;100.00;101653.53;2614854;36;20372;-55
2022/08/22 05:25:18;;;;;;;;;;;;;;;17.11;100.00;101645.59;2613594;36;20391;-55
2022/08/22 05:27:49;;;;;;;;;;;;;;;17.00;100.00;101646.69;2614218;36;19950;-53
2022/08/22 05:30:23;;;;;;;;;;;;;;;16.98;100.00;101648.72;2614568;36;20340;-56
2022/08/22 05:32:53;;;;;;;;;;;;;;;17.00;100.00;101657.56;2614636;36;19951;-53
2022/08/22 05:35:28;;;;;;;;;;;;;;;17.03;100.00;101662.69;2614977;36;19966;-53
2022/08/22 05:37:57;;;;;;;;;;;;;;;17.09;100.00;101653.03;2614633;36;19977;-50
2022/08/22 05:40:27;;;;;;;;;;;;;;;17.00;100.00;101663.00;2614680;36;19954;-52
2022/08/22 05:42:57;;;;;;;;;;;;;;;17.00;100.00;101668.44;2614371;36;19950;-53
2022/08/22 05:45:29;;;;;;;;;;;;;;;16.99;100.00;101667.59;2614927;36;19987;-53
2022/08/22 05:48:00;;;;;;;;;;;;;;;17.02;100.00;101671.88;2614696;36;19947;-52
2022/08/22 05:50:33;;;;;;;;;;;;;;;17.07;100.00;101674.97;2614281;36;19947;-51
2022/08/22 05:53:05;;;;;;;;;;;;;;;17.17;100.00;101675.72;2615574;31;20448;-52
2022/08/22 05:55:34;;;;;;;;;;;;;;;17.27;100.00;101678.34;2615372;36;19947;-53
2022/08/22 05:58:13;;;;;;;;;;;;;;;17.33;100.00;101668.69;2615070;36;19978;-53
2022/08/22 06:00:47;;;;;;;;;;;;;;;17.43;100.00;101669.44;2614270;36;19962;-53
2022/08/22 06:03:19;;;;;;;;;;;;;;;17.44;100.00;101670.28;2614382;31;20436;-55
2022/08/22 06:05:51;;;;;;;;;;;;;;;17.55;100.00;101671.84;2614965;36;19986;-54
2022/08/22 06:08:23;;;;;;;;;;;;;;;17.64;100.00;101673.63;2614757;36;19953;-55
2022/08/22 06:10:53;;;;;;;;;;;;;;;17.78;100.00;101672.97;2615476;36;20333;-52
2022/08/22 06:13:25;;;;;;;;;;;;;;;17.84;100.00;101677.78;2614069;36;19981;-54
2022/08/22 06:16:00;;;;;;;;;;;;;;;17.68;100.00;101678.56;2614677;36;19947;-57
2022/08/22 06:18:29;;;;;;;;;;;;;;;17.78;100.00;101672.97;2615467;36;19958;-54
2022/08/22 06:21:00;;;;;;;;;;;;;;;17.85;100.00;101675.91;2615104;36;19950;-59
2022/08/22 06:23:30;;;;;;;;;;;;;;;17.94;100.00;101685.84;2616233;36;19947;-52
2022/08/22 06:26:00;;;;;;;;;;;;;;;18.00;100.00;101682.44;2614398;36;20022;-56
2022/08/22 06:28:29;;;;;;;;;;;;;;;18.10;100.00;101690.50;2613140;36;19958;-54
2022/08/22 06:31:02;;;;;;;;;;;;;;;18.03;100.00;101684.00;2614982;36;20371;-53
2022/08/22 06:33:33;;;;;;;;;;;;;;;18.23;100.00;101681.84;2615036;36;19953;-54
2022/08/22 06:38:55;;;;;;;;;;;;;;;18.48;100.00;101680.03;2614851;36;20042;-54
2022/08/22 06:41:25;;;;;;;;;;;;;;;18.30;100.00;101682.91;2614605;36;19947;-53
2022/08/22 06:43:53;;;;;;;;;;;;;;;18.21;100.00;101687.47;2614109;36;19958;-50
2022/08/22 06:46:27;;;;;;;;;;;;;;;18.38;100.00;101688.34;2612175;36;19973;-53
2022/08/22 06:48:56;;;;;;;;;;;;;;;18.32;100.00;101697.19;2614601;31;20356;-55
2022/08/22 06:51:26;;;;;;;;;;;;;;;18.49;100.00;101697.22;2614035;36;19946;-53
2022/08/22 06:53:56;;;;;;;;;;;;;;;18.65;100.00;101690.94;2614151;36;19958;-52
2022/08/22 06:56:26;;;;;;;;;;;;;;;18.64;100.00;101695.56;2610957;36;19962;-56
2022/08/22 06:58:55;;;;;;;;;;;;;;;18.74;100.00;101690.78;2613647;36;19981;-51
2022/08/22 07:01:27;;;;;;;;;;;;;;;18.66;100.00;101695.38;2614366;36;19964;-56
2022/08/22 07:03:57;;;;;;;;;;;;;;;18.80;100.00;101689.25;2611210;36;19950;-54
2022/08/22 07:06:30;;;;;;;;;;;;;;;18.81;100.00;101677.31;2605760;36;20356;-55
2022/08/22 07:08:59;;;;;;;;;;;;;;;18.71;100.00;101690.25;2612428;36;20440;-54
2022/08/22 07:11:29;;;;;;;;;;;;;;;18.91;100.00;101693.53;2610048;36;19951;-55
2022/08/22 07:14:02;;;;;;;;;;;;;;;19.05;100.00;101692.88;2611336;36;19957;-53
2022/08/22 07:16:34;;;;;;;;;;;;;;;18.85;100.00;101691.47;2610005;36;19954;-54
2022/08/22 07:19:02;;;;;;;;;;;;;;;19.02;100.00;101685.03;2611630;36;20722;-55
2022/08/22 07:21:31;;;;;;;;;;;;;;;19.15;100.00;101689.94;2610582;36;19950;-55
2022/08/22 07:24:00;;;;;;;;;;;;;;;19.16;100.00;101688.06;2611115;36;19946;-57
2022/08/22 07:26:32;;;;;;;;;;;;;;;19.17;100.00;101690.63;2611743;31;20484;-53
2022/08/22 07:29:04;;;;;;;;;;;;;;;19.23;100.00;101695.41;2611085;36;19951;-55
2022/08/22 07:31:38;;;;;;;;;;;;;;;19.32;100.00;101682.59;2610308;36;19985;-57
2022/08/22 07:34:16;;;;;;;;;;;;;;;19.29;100.00;101684.78;2610880;36;19950;-58
2022/08/22 07:36:47;;;;;;;;;;;;;;;19.30;100.00;101683.78;2611689;36;19958;-58
2022/08/22 07:39:22;;;;;;;;;;;;;;;19.31;100.00;101685.50;2611483;36;19959;-54
2022/08/22 07:41:58;;;;;;;;;;;;;;;19.30;100.00;101686.50;2609158;36;19947;-56
2022/08/22 07:44:28;;;;;;;;;;;;;;;19.30;100.00;101681.91;2611381;36;19985;-57
2022/08/22 07:47:02;;;;;;;;;;;;;;;19.38;100.00;101689.22;2610079;36;19953;-53
2022/08/22 07:49:33;;;;;;;;;;;;;;;19.47;100.00;101680.00;2609779;36;19955;-54
2022/08/22 07:52:06;;;;;;;;;;;;;;;19.41;100.00;101687.00;2611124;36;20141;-54
2022/08/22 07:54:38;;;;;;;;;;;;;;;19.61;100.00;101684.72;2612416;36;19950;-53
2022/08/22 07:57:08;;;;;;;;;;;;;;;19.76;100.00;101684.84;2610968;36;19954;-58
2022/08/22 07:59:38;;;;;;;;;;;;;;;19.85;100.00;101677.50;2611701;36;19951;-57
2022/08/22 08:02:12;;;;;;;;;;;;;;;19.94;100.00;101676.41;2610436;36;20468;-59
2022/08/22 08:04:41;;;;;;;;;;;;;;;19.81;100.00;101667.09;2611668;36;20015;-51
2022/08/22 08:07:11;;;;;;;;;;;;;;;19.86;100.00;101673.75;2610719;36;19947;-55
2022/08/22 08:09:43;;;;;;;;;;;;;;;20.03;100.00;101662.72;2612003;36;19954;-55
2022/08/22 08:12:12;;;;;;;;;;;;;;;20.38;100.00;101665.94;2612588;36;20492;-57
2022/08/22 08:14:42;;;;;;;;;;;;;;;20.63;100.00;101656.50;2613508;31;20340;-56
2022/08/22 08:17:18;;;;;;;;;;;;;;;21.09;100.00;101652.88;2613427;36;19951;-54
2022/08/22 08:19:46;;;;;;;;;;;;;;;21.26;100.00;101641.75;2613972;36;19946;-51
2022/08/22 08:22:17;;;;;;;;;;;;;;;21.54;100.00;101636.50;2607260;36;20062;-54
2022/08/22 08:24:46;;;;;;;;;;;;;;;21.80;100.00;101626.94;2613966;31;19950;-55
2022/08/22 08:30:00;;;;;;;;;;;;;;;21.67;100.00;101628.47;2612220;36;20420;-52
2022/08/22 08:32:32;;;;;;;;;;;;;;;21.69;100.00;101615.41;2612165;36;19950;-59
2022/08/22 08:35:04;;;;;;;;;;;;;;;21.71;100.00;101612.47;2614165;36;19981;-53
2022/08/22 08:37:37;;;;;;;;;;;;;;;21.79;100.00;101611.53;2612885;36;19955;-54
2022/08/22 08:40:12;;;;;;;;;;;;;;;21.84;100.00;101606.31;2614583;31;19970;-54
2022/08/22 08:45:50;;;;;;;;;;;;;;;21.74;100.00;101600.31;2613164;36;19981;-54
2022/08/22 08:48:32;;;;;;;;;;;;;;;21.87;100.00;101601.28;2610864;36;19943;-55
2022/08/22 08:51:14;;;;;;;;;;;;;;;22.33;100.00;101610.25;2612496;36;20021;-52
2022/08/22 08:53:52;;;;;;;;;;;;;;;22.51;100.00;101604.28;2612556;36;19951;-53
2022/08/22 08:56:25;;;;;;;;;;;;;;;22.76;100.00;101601.97;2614016;31;19950;-53
2022/08/22 08:58:59;;;;;;;;;;;;;;;22.93;100.00;101608.03;2613207;36;19947;-52
2022/08/22 09:01:46;;;;;;;;;;;;;;;22.86;100.00;101604.38;2612950;36;19957;-50
2022/08/22 09:04:27;;;;;;;;;;;;;;;22.91;100.00;101607.38;2613267;36;19951;-52
2022/08/22 09:07:20;;;;;;;;;;;;;;;23.17;100.00;101612.22;2610090;36;19954;-55
2022/08/22 09:09:56;;;;;;;;;;;;;;;23.04;100.00;101610.22;2615269;31;20337;-55
2022/08/22 09:12:37;;;;;;;;;;;;;;;23.15;100.00;101617.06;2613977;31;19978;-56
2022/08/22 09:15:12;;;;;;;;;;;;;;;23.33;100.00;101608.31;2614599;36;19963;-55
2022/08/22 09:18:07;;;;;;;;;;;;;;;23.52;100.00;101608.63;2613405;36;19971;-52
2022/08/22 09:20:50;;;;;;;;;;;;;;;23.67;100.00;101614.81;2613214;36;19946;-55
2022/08/22 09:23:36;;;;;;;;;;;;;;;23.49;100.00;101614.53;2614347;36;19954;-54
2022/08/22 09:26:07;;;;;;;;;;;;;;;23.54;100.00;101620.25;2612964;31;20089;-54
2022/08/22 09:28:37;;;;;;;;;;;;;;;23.82;100.00;101617.41;2612387;36;19947;-54
2022/08/22 09:31:14;;;;;;;;;;;;;;;24.11;100.00;101610.75;2612352;31;19982;-57
2022/08/22 09:33:49;;;;;;;;;;;;;;;23.98;100.00;101613.47;2610030;36;19976;-51
2022/08/22 09:36:24;;;;;;;;;;;;;;;24.40;100.00;101605.13;2612844;36;19946;-56
2022/08/22 09:38:56;;;;;;;;;;;;;;;24.25;100.00;101602.56;2613119;36;19954;-54
2022/08/22 09:41:30;;;;;;;;;;;;;;;24.43;100.00;101602.78;2611173;36;20347;-55
2022/08/22 09:44:05;;;;;;;;;;;;;;;24.37;100.00;101594.53;2609884;36;19958;-53
2022/08/22 09:46:35;;;;;;;;;;;;;;;24.54;98.35;101598.53;2608993;36;20436;-55
2022/08/22 09:49:07;;;;;;;;;;;;;;;24.52;96.45;101597.06;2609734;36;19997;-56
2022/08/22 09:51:46;;;;;;;;;;;;;;;24.61;100.00;101591.16;2611007;31;19958;-58
2022/08/22 09:54:25;;;;;;;;;;;;;;;24.68;100.00;101585.66;2610595;36;19999;-52
2022/08/22 09:57:08;;;;;;;;;;;;;;;24.38;100.00;101585.19;2612017;36;19962;-54
2022/08/22 09:59:45;;;;;;;;;;;;;;;24.27;100.00;101587.50;2613588;36;19947;-53
2022/08/22 10:02:21;;;;;;;;;;;;;;;24.13;100.00;101586.66;2613557;31;19950;-55
2022/08/22 10:04:56;;;;;;;;;;;;;;;24.20;100.00;101575.66;2612472;36;20972;-55
2022/08/22 10:07:37;;;;;;;;;;;;;;;23.99;100.00;101582.19;2609847;31;20536;-53
2022/08/22 10:10:17;;;;;;;;;;;;;;;23.85;100.00;101585.91;2609949;31;19957;-56
2022/08/22 10:12:51;;;;;;;;;;;;;;;24.04;100.00;101571.41;2611561;36;20405;-52
2022/08/22 10:15:22;;;;;;;;;;;;;;;24.36;100.00;101571.66;2612578;36;19997;-52
2022/08/22 10:17:57;;;;;;;;;;;;;;;24.78;100.00;101563.22;2612629;31;20024;-52
2022/08/22 10:20:29;;;;;;;;;;;;;;;24.81;100.00;101569.13;2614603;36;19989;-50
2022/08/22 10:23:08;;;;;;;;;;;;;;;25.11;98.45;101567.81;2614175;36;19947;-57
2022/08/22 10:25:39;;;;;;;;;;;;;;;25.31;95.52;101557.59;2613545;36;19955;-51
2022/08/22 10:28:14;;;;;;;;;;;;;;;25.48;100.00;101552.44;2612271;31;19953;-54
2022/08/22 10:30:49;;;;;;;;;;;;;;;25.49;99.27;101554.13;2612327;36;19955;-55
2022/08/22 10:33:20;;;;;;;;;;;;;;;25.72;95.88;101561.00;2610402;36;19985;-54
2022/08/22 10:35:59;;;;;;;;;;;;;;;25.51;93.72;101562.19;2613821;31;20459;-54
2022/08/22 10:38:33;;;;;;;;;;;;;;;25.18;100.00;101550.19;2614939;31;19954;-53
2022/08/22 10:41:05;;;;;;;;;;;;;;;25.68;100.00;101551.53;2613283;36;19974;-57
2022/08/22 10:43:39;;;;;;;;;;;;;;;25.35;100.00;101546.97;2612450;31;19981;-51
2022/08/22 10:46:11;;;;;;;;;;;;;;;25.15;100.00;101544.28;2613836;36;19947;-54
2022/08/22 10:48:46;;;;;;;;;;;;;;;25.02;100.00;101543.25;2612594;36;19977;-55
2022/08/22 10:51:21;;;;;;;;;;;;;;;24.65;100.00;101539.31;2613129;36;20436;-59
2022/08/22 10:54:08;;;;;;;;;;;;;;;24.44;100.00;101538.44;2613223;36;20376;-53
2022/08/22 10:56:39;;;;;;;;;;;;;;;24.89;100.00;101537.78;2602390;36;19984;-57
2022/08/22 10:59:15;;;;;;;;;;;;;;;25.29;100.00;101536.81;2611286;31;19984;-55
2022/08/22 11:01:51;;;;;;;;;;;;;;;25.24;98.39;101528.38;2610778;36;19950;-53
2022/08/22 11:04:30;;;;;;;;;;;;;;;24.99;100.00;101526.31;2612212;36;19983;-55
2022/08/22 11:07:05;;;;;;;;;;;;;;;25.07;100.00;101526.06;2612437;36;19981;-52
2022/08/22 11:09:39;;;;;;;;;;;;;;;25.54;100.00;101520.41;2614488;36;19954;-53
2022/08/22 11:12:12;;;;;;;;;;;;;;;25.60;100.00;101535.22;2614238;36;19973;-57
2022/08/22 11:14:56;;;;;;;;;;;;;;;25.94;100.00;101528.47;2612931;36;20045;-56
2022/08/22 11:17:33;;;;;;;;;;;;;;;26.37;92.75;101524.13;2614259;36;20344;-56
2022/08/22 11:20:11;;;;;;;;;;;;;;;26.16;93.48;101530.88;2613667;36;19973;-56
2022/08/22 11:22:46;;;;;;;;;;;;;;;26.66;82.18;101527.25;2614626;36;20428;-53
2022/08/22 11:25:32;;;;;;;;;;;;;;;26.47;93.33;101535.50;2613434;36;19974;-53
2022/08/22 11:28:15;;;;;;;;;;;;;;;25.99;79.74;101536.06;2613829;36;19958;-53
2022/08/22 11:30:48;;;;;;;;;;;;;;;25.27;97.40;101534.28;2614082;36;19950;-53
2022/08/22 11:33:25;;;;;;;;;;;;;;;25.21;97.27;101529.63;2611846;36;19946;-55
2022/08/22 11:35:57;;;;;;;;;;;;;;;24.93;100.00;101528.03;2613632;36;19946;-51
2022/08/22 11:38:31;;;;;;;;;;;;;;;24.74;100.00;101527.00;2614229;31;20429;-55
2022/08/22 11:41:06;;;;;;;;;;;;;;;24.28;100.00;101519.59;2614159;36;19958;-51
2022/08/22 11:43:40;;;;;;;;;;;;;;;24.81;100.00;101527.84;2614772;36;20436;-53
2022/08/22 11:46:17;;;;;;;;;;;;;;;25.14;100.00;101523.31;2613619;36;19946;-51
2022/08/22 11:48:48;;;;;;;;;;;;;;;25.63;100.00;101523.75;2614895;36;19946;-54
2022/08/22 11:51:26;;;;;;;;;;;;;;;25.76;94.77;101526.44;2613857;31;19951;-51
2022/08/22 11:53:57;;;;;;;;;;;;;;;25.70;95.65;101517.13;2613337;36;19946;-53
2022/08/22 11:56:31;;;;;;;;;;;;;;;25.81;100.00;101512.84;2614024;31;20498;-52
2022/08/22 11:59:02;;;;;;;;;;;;;;;26.59;95.03;101524.56;2614993;36;20339;-54
2022/08/22 12:01:37;;;;;;;;;;;;;;;27.10;88.45;101519.78;2614734;36;20435;-56
2022/08/22 12:04:10;;;;;;;;;;;;;;;27.09;80.96;101520.88;2614657;36;20333;-57
2022/08/22 12:06:48;;;;;;;;;;;;;;;27.77;79.53;101516.19;2611738;36;19958;-54
2022/08/22 12:09:22;;;;;;;;;;;;;;;27.71;70.23;101514.34;2613240;36;19973;-50
2022/08/22 12:12:00;;;;;;;;;;;;;;;28.10;88.63;101503.78;2611370;36;20005;-53
2022/08/22 12:14:30;;;;;;;;;;;;;;;27.75;69.94;101510.91;2611901;36;20430;-51
2022/08/22 12:17:08;;;;;;;;;;;;;;;27.50;71.95;101504.66;2612116;36;19954;-53
2022/08/22 12:19:40;;;;;;;;;;;;;;;27.24;72.15;101510.28;2613769;36;19954;-53
2022/08/22 12:22:24;;;;;;;;;;;;;;;26.57;80.77;101508.22;2612747;31;20514;-52
2022/08/22 12:25:00;;;;;;;;;;;;;;;26.74;78.08;101510.44;2611389;36;19985;-53
2022/08/22 12:27:47;;;;;;;;;;;;;;;26.92;97.17;101499.38;2611537;36;20001;-54
2022/08/22 12:30:22;;;;;;;;;;;;;;;26.98;70.28;101500.38;2611310;36;19977;-56
2022/08/22 12:33:02;;;;;;;;;;;;;;;27.47;76.42;101508.72;2611008;36;19950;-54
2022/08/22 12:35:36;;;;;;;;;;;;;;;26.98;80.73;101494.84;2614390;36;19954;-53
2022/08/22 12:38:09;;;;;;;;;;;;;;;27.32;74.46;101495.28;2614464;36;20469;-57
2022/08/22 12:40:47;;;;;;;;;;;;;;;26.93;71.14;101495.56;2612135;36;19977;-54
2022/08/22 12:43:24;;;;;;;;;;;;;;;26.64;74.05;101499.03;2612028;36;19958;-54
2022/08/22 12:46:06;;;;;;;;;;;;;;;26.40;78.98;101496.06;2613801;36;19993;-51
2022/08/22 12:48:44;;;;;;;;;;;;;;;25.96;84.12;101500.66;2614149;36;20360;-55
2022/08/22 12:51:22;;;;;;;;;;;;;;;25.70;85.04;101494.22;2613437;36;20487;-54
2022/08/22 12:53:55;;;;;;;;;;;;;;;25.37;90.78;101503.53;2612349;36;19947;-54
2022/08/22 12:56:29;;;;;;;;;;;;;;;26.01;90.86;101495.31;2611260;36;19982;-55
2022/08/22 12:59:09;;;;;;;;;;;;;;;26.46;75.56;101497.94;2607145;36;19946;-53
2022/08/22 13:01:44;;;;;;;;;;;;;;;26.91;76.39;101494.94;2609328;36;19946;-53
2022/08/22 13:04:15;;;;;;;;;;;;;;;27.02;74.64;101489.72;2612300;31;19939;-54
2022/08/22 13:06:49;;;;;;;;;;;;;;;27.26;70.98;101488.75;2611109;36;19958;-53
2022/08/22 13:09:23;;;;;;;;;;;;;;;26.75;75.48;101488.09;2613487;36;19953;-54
2022/08/22 13:11:53;;;;;;;;;;;;;;;27.13;71.62;101491.69;2613021;36;19982;-53
2022/08/22 13:14:23;;;;;;;;;;;;;;;26.72;78.35;101484.94;2613886;36;20382;-55
2022/08/22 13:16:56;;;;;;;;;;;;;;;26.57;71.42;101477.88;2612508;36;19939;-55